createdAt,value
2022-10-09T00:02:12.985Z,102268.06
2022-10-09T00:07:15.734Z,102273.03
2022-10-09T00:12:19.649Z,102276.16
2022-10-09T00:17:22.221Z,102276.63
2022-10-09T00:22:26.467Z,102286.50
2022-10-09T00:27:30.343Z,102280.44
2022-10-09T00:32:32.883Z,102286.50
2022-10-09T00:37:35.397Z,102296.94
2022-10-09T00:42:39.268Z,102291.22
2022-10-09T00:47:46.271Z,102280.97
2022-10-09T00:52:51.812Z,102285.25
2022-10-09T00:57:57.212Z,102291.47
2022-10-09T01:03:00.640Z,102284.53
2022-10-09T01:08:08.392Z,102288.09
2022-10-09T01:13:21.591Z,102286.66
2022-10-09T01:18:30.845Z,102288.38
2022-10-09T01:23:52.289Z,102277.06
2022-10-09T01:29:00.705Z,102274.44
2022-10-09T01:34:04.599Z,102274.06
2022-10-09T01:39:11.142Z,102267.38
2022-10-09T01:44:20.336Z,102236.84
2022-10-09T01:49:34.094Z,102264.47
2022-10-09T01:54:42.857Z,102258.09
2022-10-09T01:59:48.319Z,102258.44
2022-10-09T02:04:51.228Z,102250.94
2022-10-09T02:09:55.143Z,102250.06
2022-10-09T02:14:59.167Z,102244.91
2022-10-09T02:20:07.485Z,102233.81
2022-10-09T02:25:10.307Z,102236.34
2022-10-09T02:30:15.934Z,102240.25
2022-10-09T02:35:18.463Z,102193.66
2022-10-09T02:40:20.974Z,102202.28
2022-10-09T02:45:24.891Z,102237.06
2022-10-09T02:50:27.600Z,102234.38
2022-10-09T02:55:30.120Z,102232.84
2022-10-09T03:00:33.955Z,102224.47
2022-10-09T03:05:36.459Z,102223.63
2022-10-09T03:10:39.327Z,102225.94
2022-10-09T03:15:43.186Z,102213.47
2022-10-09T03:20:46.107Z,102219.63
2022-10-09T03:25:56.554Z,102214.34
2022-10-09T03:31:00.909Z,102216.53
2022-10-09T03:36:04.548Z,102218.34
2022-10-09T03:41:07.702Z,102219.09
2022-10-09T03:46:12.221Z,102218.63
2022-10-09T03:51:14.844Z,102221.28
2022-10-09T03:56:17.366Z,102222.53
2022-10-09T04:01:21.328Z,102221.53
2022-10-09T04:06:23.892Z,102217.25
2022-10-09T04:11:26.412Z,102213.06
2022-10-09T04:16:30.342Z,102205.25
2022-10-09T04:21:33.620Z,102213.00
2022-10-09T04:26:36.289Z,102219.38
2022-10-09T04:31:40.283Z,102215.84
2022-10-09T04:36:42.839Z,102214.44
2022-10-09T04:41:45.396Z,102209.66
2022-10-09T04:46:50.959Z,102203.91
2022-10-09T04:51:53.478Z,102154.72
2022-10-09T04:56:55.979Z,102201.34
2022-10-09T05:01:59.897Z,102198.84
2022-10-09T05:07:02.463Z,102195.28
2022-10-09T05:12:05.312Z,102204.66
2022-10-09T05:17:13.988Z,102196.16
2022-10-09T05:22:17.211Z,102196.06
2022-10-09T05:27:19.855Z,102194.13
2022-10-09T05:32:23.916Z,102192.50
2022-10-09T05:37:26.428Z,102196.34
2022-10-09T05:42:28.918Z,102193.69
2022-10-09T05:47:32.764Z,102201.59
2022-10-09T05:52:36.672Z,102198.00
2022-10-09T05:57:39.196Z,102194.34
2022-10-09T06:02:43.087Z,102190.69
2022-10-09T06:07:46.763Z,102197.69
2022-10-09T06:12:49.491Z,102200.06
2022-10-09T06:17:53.556Z,102205.56
2022-10-09T06:22:56.052Z,102204.28
2022-10-09T06:27:58.967Z,102203.75
2022-10-09T06:33:02.788Z,102203.88
2022-10-09T06:38:05.317Z,102198.28
2022-10-09T06:43:08.350Z,102198.53
2022-10-09T06:48:12.225Z,102207.66
2022-10-09T06:53:14.716Z,102206.09
2022-10-09T06:58:17.228Z,102202.06
2022-10-09T07:03:21.080Z,102208.41
2022-10-09T07:08:23.586Z,102197.84
2022-10-09T07:13:26.105Z,102195.06
2022-10-09T07:18:30.026Z,102198.16
2022-10-09T07:23:33.639Z,102176.66
2022-10-09T07:28:36.297Z,102209.25
2022-10-09T07:33:41.511Z,102213.41
2022-10-09T07:38:44.089Z,102220.66
2022-10-09T07:43:46.747Z,102211.88
2022-10-09T07:48:51.101Z,102207.38
2022-10-09T07:53:54.226Z,102202.03
2022-10-09T07:58:58.618Z,102201.03
2022-10-09T08:04:03.228Z,102196.94
2022-10-09T08:09:07.731Z,102194.53
2022-10-09T08:14:18.035Z,102189.38
2022-10-09T08:19:23.429Z,102192.78
2022-10-09T08:24:25.947Z,102176.91
2022-10-09T08:29:29.764Z,102190.59
2022-10-09T08:34:33.620Z,102184.81
2022-10-09T08:39:36.307Z,102181.34
2022-10-09T08:44:41.305Z,102186.75
2022-10-09T08:49:52.032Z,102176.41
2022-10-09T08:55:00.358Z,102131.22
2022-10-09T09:00:02.927Z,102166.44
2022-10-09T09:05:23.769Z,102171.09
2022-10-09T09:10:38.010Z,102154.41
2022-10-09T09:15:48.212Z,102145.03
2022-10-09T09:20:54.993Z,102146.97
2022-10-09T09:25:59.489Z,102145.28
2022-10-09T09:31:09.272Z,102131.59
2022-10-09T09:36:18.760Z,102136.41
2022-10-09T09:41:21.350Z,102131.97
2022-10-09T09:46:28.416Z,102114.66
2022-10-09T09:51:33.483Z,102104.00
2022-10-09T09:57:06.946Z,102103.31
2022-10-09T10:02:05.026Z,102092.81
2022-10-09T10:07:09.057Z,102093.91
2022-10-09T10:12:18.421Z,102081.59
2022-10-09T10:17:29.348Z,102073.88
2022-10-09T10:22:33.472Z,102063.03
2022-10-09T10:27:41.544Z,102064.59
2022-10-09T10:32:52.018Z,102053.94
2022-10-09T10:38:05.340Z,102039.69
2022-10-09T10:43:16.613Z,102051.28
2022-10-09T10:48:22.679Z,102042.72
2022-10-09T10:53:42.216Z,102027.13
2022-10-09T10:58:56.499Z,102020.63
2022-10-09T11:04:14.414Z,102012.66
2022-10-09T11:09:27.387Z,102001.44
2022-10-09T11:14:41.716Z,102004.13
2022-10-09T11:20:05.385Z,101999.09
2022-10-09T11:25:22.709Z,101987.28
2022-10-09T11:30:28.454Z,101975.69
2022-10-09T11:35:38.392Z,101966.66
2022-10-09T11:40:44.213Z,101970.19
2022-10-09T11:45:51.678Z,101959.06
2022-10-09T11:51:01.496Z,101960.91
2022-10-09T11:56:08.866Z,101946.00
2022-10-09T12:01:20.088Z,101928.28
2022-10-09T12:06:22.674Z,101924.31
2022-10-09T12:11:27.189Z,101908.78
2022-10-09T12:16:39.736Z,101899.31
2022-10-09T12:21:48.937Z,101890.53
2022-10-09T12:26:55.787Z,101882.00
2022-10-09T12:32:04.588Z,101877.13
2022-10-09T12:37:16.011Z,101815.59
2022-10-09T12:42:23.813Z,101855.94
2022-10-09T12:47:29.006Z,101850.53
2022-10-09T12:52:32.678Z,101834.56
2022-10-09T12:57:36.920Z,101839.22
2022-10-09T13:02:41.113Z,101828.03
2022-10-09T13:07:48.413Z,101817.22
2022-10-09T13:12:55.529Z,101803.34
2022-10-09T13:17:58.432Z,101800.25
2022-10-09T13:23:02.856Z,101794.03
2022-10-09T13:28:07.275Z,101778.91
2022-10-09T13:33:14.165Z,101765.50
2022-10-09T13:38:20.137Z,101766.59
2022-10-09T13:43:26.615Z,101741.31
2022-10-09T13:48:31.096Z,101755.75
2022-10-09T13:53:33.850Z,101733.91
2022-10-09T13:58:38.070Z,101739.63
2022-10-09T14:03:41.249Z,101732.34
2022-10-09T14:08:43.933Z,101718.50
2022-10-09T14:13:48.189Z,101712.50
2022-10-09T14:18:51.762Z,101709.72
2022-10-09T14:23:54.732Z,101696.50
2022-10-09T14:29:01.251Z,101694.00
2022-10-09T14:34:04.065Z,101683.66
2022-10-09T14:39:06.572Z,101671.47
2022-10-09T14:44:11.009Z,101667.44
2022-10-09T14:49:14.098Z,101653.25
2022-10-09T14:54:16.689Z,101646.34
2022-10-09T14:59:20.686Z,101640.50
2022-10-09T15:04:23.228Z,101636.06
2022-10-09T15:09:26.075Z,101624.66
2022-10-09T15:14:30.026Z,101618.44
2022-10-09T15:19:32.751Z,101608.72
2022-10-09T15:24:35.679Z,101606.78
2022-10-09T15:29:39.756Z,101589.06
2022-10-09T15:34:42.391Z,101588.78
2022-10-09T15:39:44.911Z,101580.66
2022-10-09T15:44:48.801Z,101575.19
2022-10-09T15:49:53.448Z,101567.63
2022-10-09T15:54:56.077Z,101556.34
2022-10-09T16:00:00.922Z,101560.13
2022-10-09T16:05:05.073Z,101555.25
2022-10-09T16:10:08.234Z,101544.28
2022-10-09T16:15:12.497Z,101538.84
2022-10-09T16:20:15.209Z,101536.53
2022-10-09T16:25:17.984Z,101541.41
2022-10-09T16:30:22.040Z,101532.41
2022-10-09T16:35:24.568Z,101535.63
2022-10-09T16:40:49.852Z,101529.19
2022-10-09T16:45:50.994Z,101528.06
2022-10-09T16:50:53.668Z,101524.59
2022-10-09T16:55:56.232Z,101521.06
2022-10-09T17:01:06.089Z,101521.38
2022-10-09T17:06:14.748Z,101514.16
2022-10-09T17:11:18.088Z,101517.75
2022-10-09T17:16:22.981Z,101519.41
2022-10-09T17:21:27.952Z,101487.88
2022-10-09T17:26:34.246Z,101510.56
2022-10-09T17:31:38.100Z,101505.56
2022-10-09T17:36:42.496Z,101510.34
2022-10-09T17:41:46.947Z,101518.88
2022-10-09T17:46:50.837Z,101513.34
2022-10-09T17:51:54.378Z,101518.31
2022-10-09T17:57:00.097Z,101513.09
2022-10-09T18:02:04.427Z,101507.34
2022-10-09T18:07:07.021Z,101494.28
2022-10-09T18:12:09.605Z,101504.69
2022-10-09T18:17:13.480Z,101496.53
2022-10-09T18:22:16.008Z,101485.31
2022-10-09T18:27:18.536Z,101481.91
2022-10-09T18:32:22.519Z,101494.16
2022-10-09T18:37:25.145Z,101467.59
2022-10-09T18:42:27.773Z,101486.13
2022-10-09T18:47:35.793Z,101474.09
2022-10-09T18:52:40.726Z,101480.16
2022-10-09T18:57:43.886Z,101471.63
2022-10-09T19:02:47.780Z,101468.06
2022-10-09T19:07:50.616Z,101468.63
2022-10-09T19:12:54.283Z,101362.66
2022-10-09T19:17:58.300Z,101448.72
2022-10-09T19:23:00.930Z,101449.91
2022-10-09T19:28:03.464Z,101454.66
2022-10-09T19:33:07.331Z,101446.88
2022-10-09T19:38:10.346Z,101443.50
2022-10-09T19:43:14.079Z,101438.56
2022-10-09T19:48:20.265Z,101444.50
2022-10-09T19:53:22.821Z,101442.34
2022-10-09T19:58:25.345Z,101434.28
2022-10-09T20:03:29.767Z,101431.28
2022-10-09T20:08:32.393Z,101422.66
2022-10-09T20:13:36.336Z,101424.84
2022-10-09T20:18:42.160Z,101421.44
2022-10-09T20:23:45.333Z,101422.38
2022-10-09T20:28:49.152Z,101413.97
2022-10-09T20:33:54.385Z,101414.16
2022-10-09T20:38:57.799Z,101389.06
2022-10-09T20:44:02.732Z,101408.00
2022-10-09T20:49:09.375Z,101407.47
2022-10-09T20:54:16.479Z,101405.75
2022-10-09T20:59:19.493Z,101384.47
2022-10-09T21:04:23.352Z,101395.38
2022-10-09T21:09:30.855Z,101393.97
2022-10-09T21:14:35.579Z,101384.59
2022-10-09T21:19:39.453Z,101378.63
2022-10-09T21:24:41.990Z,101372.44
2022-10-09T21:29:44.579Z,101372.28
2022-10-09T21:34:48.620Z,101373.31
2022-10-09T21:39:51.142Z,101372.34
2022-10-09T21:44:53.647Z,101362.78
2022-10-09T21:49:57.549Z,101359.47
2022-10-09T21:55:00.126Z,101354.63
2022-10-09T22:00:03.071Z,101350.47
2022-10-09T22:05:09.775Z,101349.31
2022-10-09T22:10:12.578Z,101343.06
2022-10-09T22:15:15.127Z,101341.34
2022-10-09T22:20:19.163Z,101332.91
2022-10-09T22:25:21.727Z,101334.50
2022-10-09T22:30:24.660Z,101330.63
2022-10-09T22:35:28.744Z,101327.84
2022-10-09T22:40:31.268Z,101323.50
2022-10-09T22:45:37.739Z,101324.09
2022-10-09T22:50:41.593Z,101317.44
2022-10-09T22:55:44.130Z,101309.19
2022-10-09T23:00:46.639Z,101308.59
2022-10-09T23:05:50.518Z,101298.00
2022-10-09T23:10:53.049Z,101300.56
2022-10-09T23:15:56.030Z,101295.84
2022-10-09T23:21:03.401Z,101270.78
2022-10-09T23:26:06.742Z,101294.53
2022-10-09T23:31:10.972Z,101280.50
2022-10-09T23:36:17.136Z,101237.66
2022-10-09T23:41:21.580Z,101278.81
2022-10-09T23:46:26.796Z,101276.47
2022-10-09T23:51:31.382Z,101276.91
2022-10-09T23:56:36.942Z,101267.38
